Time;durP1;ratioP1;P1;durP2;ratioP2;P2;SDS_P1;SDS_P2;PMS_P1;PMS_P2;Temp;Humidity;BMP_temperature;BMP_pressure;BME280_temperature;BME280_humidity;BME280_pressure;Samples;Min_cycle;Max_cycle;Signal;HPM_P1;HPM_P2
2024/01/12 00:00:23;;;;;;;14.02;1.77;;;4.70;99.90;;;;;;4993444;28;20487;-80
2024/01/12 00:02:49;;;;;;;9.20;2.15;;;4.70;99.90;;;;;;4994063;28;20434;-81
2024/01/12 00:05:15;;;;;;;7.20;1.48;;;4.80;99.90;;;;;;4994169;28;20117;-81
2024/01/12 00:07:41;;;;;;;14.13;2.42;;;4.80;99.90;;;;;;4995312;28;20050;-79
2024/01/12 00:10:08;;;;;;;10.13;2.20;;;4.80;99.90;;;;;;4990553;28;20412;-79
2024/01/12 00:12:34;;;;;;;9.48;1.88;;;4.80;99.90;;;;;;4994104;28;20106;-81
2024/01/12 00:15:00;;;;;;;16.52;2.20;;;4.80;99.90;;;;;;4993634;28;20490;-80
2024/01/12 00:17:26;;;;;;;8.90;1.77;;;4.80;99.90;;;;;;4995146;28;20041;-81
2024/01/12 00:19:51;;;;;;;7.68;1.25;;;4.80;99.90;;;;;;4994984;28;20426;-81
2024/01/12 00:22:17;;;;;;;10.05;1.88;;;4.80;99.90;;;;;;4994094;28;20490;-79
2024/01/12 00:24:43;;;;;;;9.50;1.48;;;4.80;99.90;;;;;;4995345;28;20110;-79
2024/01/12 00:27:08;;;;;;;9.55;1.75;;;4.80;99.90;;;;;;4993981;28;20033;-79
2024/01/12 00:29:34;;;;;;;7.43;2.00;;;4.80;99.90;;;;;;4993607;28;20077;-80
2024/01/12 00:32:00;;;;;;;11.77;1.80;;;4.90;99.90;;;;;;4994102;28;20060;-80
2024/01/12 00:34:25;;;;;;;12.10;1.55;;;4.90;99.90;;;;;;4994120;28;20027;-80
2024/01/12 00:36:53;;;;;;;13.05;2.20;;;4.90;99.90;;;;;;4995411;28;20090;-79
2024/01/12 00:39:19;;;;;;;8.90;1.17;;;4.80;99.90;;;;;;4993895;28;20082;-79
2024/01/12 00:41:45;;;;;;;6.85;2.28;;;4.80;99.90;;;;;;4991156;28;20045;-79
2024/01/12 00:44:11;;;;;;;16.02;1.45;;;4.80;99.90;;;;;;4997600;28;20026;-79
2024/01/12 00:46:36;;;;;;;6.07;1.60;;;4.80;99.90;;;;;;4998874;28;20050;-78
2024/01/12 00:49:02;;;;;;;8.82;1.70;;;4.80;99.90;;;;;;4998204;28;20037;-77
2024/01/12 00:51:28;;;;;;;12.40;1.50;;;4.80;99.90;;;;;;4984393;28;20106;-79
2024/01/12 00:53:53;;;;;;;13.38;2.10;;;4.90;99.90;;;;;;4978148;28;20068;-78
2024/01/12 00:56:19;;;;;;;10.93;1.98;;;4.90;99.90;;;;;;4996424;28;20030;-78
2024/01/12 00:58:45;;;;;;;6.95;1.23;;;4.90;99.90;;;;;;5007736;28;20481;-76
2024/01/12 01:01:10;;;;;;;8.02;1.45;;;4.90;99.90;;;;;;5008380;28;20038;-77
2024/01/12 01:03:37;;;;;;;23.08;2.67;;;4.80;99.90;;;;;;5009654;28;20026;-76
2024/01/12 01:06:04;;;;;;;4.97;1.33;;;4.80;99.90;;;;;;5008739;28;20036;-77
2024/01/12 01:08:30;;;;;;;14.70;2.13;;;4.80;99.90;;;;;;5005515;28;20026;-76
2024/01/12 01:10:55;;;;;;;5.22;1.42;;;4.80;99.90;;;;;;5007131;28;20029;-76
2024/01/12 01:13:21;;;;;;;9.55;1.60;;;4.80;99.90;;;;;;5008714;28;20030;-77
2024/01/12 01:15:47;;;;;;;12.20;2.83;;;4.80;99.90;;;;;;5007626;28;20034;-77
2024/01/12 01:18:15;;;;;;;8.98;2.03;;;4.80;99.90;;;;;;5007292;28;20400;-77
2024/01/12 01:20:40;;;;;;;3.33;1.20;;;4.80;99.90;;;;;;5003387;28;20045;-77
2024/01/12 01:23:06;;;;;;;11.27;1.73;;;4.80;99.90;;;;;;5007163;28;20395;-77
2024/01/12 01:25:32;;;;;;;5.70;1.30;;;4.80;99.90;;;;;;5006932;28;20033;-78
2024/01/12 01:27:58;;;;;;;13.20;1.20;;;4.80;99.90;;;;;;5005176;28;20038;-76
2024/01/12 01:30:23;;;;;;;7.63;1.85;;;4.80;99.90;;;;;;5008923;28;20045;-77
2024/01/12 01:32:49;;;;;;;5.00;2.00;;;4.70;99.90;;;;;;5005198;28;20027;-77
2024/01/12 01:35:16;;;;;;;5.65;1.45;;;4.80;99.90;;;;;;5005229;28;20037;-77
2024/01/12 01:37:43;;;;;;;12.77;2.03;;;4.80;99.90;;;;;;4993622;28;20029;-79
2024/01/12 01:40:09;;;;;;;6.00;1.52;;;4.80;99.90;;;;;;4992273;28;20030;-80
2024/01/12 01:42:35;;;;;;;3.95;1.10;;;4.80;99.90;;;;;;4993346;28;20049;-79
2024/01/12 01:45:02;;;;;;;9.23;1.35;;;4.80;99.90;;;;;;4992156;28;20022;-80
2024/01/12 01:47:28;;;;;;;14.43;1.83;;;4.80;99.90;;;;;;4993549;28;20034;-78
2024/01/12 01:49:55;;;;;;;4.10;1.40;;;4.90;99.90;;;;;;4993264;28;20049;-79
2024/01/12 01:52:23;;;;;;;8.30;1.77;;;4.90;99.90;;;;;;4992270;28;20487;-78
2024/01/12 01:54:49;;;;;;;7.70;1.27;;;4.90;99.90;;;;;;4993662;28;20422;-79
2024/01/12 01:57:15;;;;;;;6.63;1.40;;;4.90;99.90;;;;;;5000621;28;20042;-77
2024/01/12 01:59:41;;;;;;;9.13;1.55;;;4.90;99.90;;;;;;5006680;28;20030;-76
2024/01/12 02:02:08;;;;;;;7.65;1.15;;;4.90;99.90;;;;;;5004827;28;20538;-77
2024/01/12 02:04:34;;;;;;;8.07;1.02;;;4.90;99.90;;;;;;5003185;28;20090;-77
2024/01/12 02:07:01;;;;;;;11.38;2.00;;;4.90;99.90;;;;;;4999409;28;20561;-78
2024/01/12 02:09:28;;;;;;;7.93;1.67;;;4.90;99.90;;;;;;4974425;28;20078;-80
2024/01/12 02:11:54;;;;;;;6.60;1.02;;;4.90;99.90;;;;;;4974104;28;20526;-79
2024/01/12 02:14:20;;;;;;;9.30;1.80;;;4.90;99.90;;;;;;4988314;28;20394;-79
2024/01/12 02:16:46;;;;;;;9.35;1.80;;;4.90;99.90;;;;;;4992042;28;20026;-78
2024/01/12 02:19:12;;;;;;;11.02;1.60;;;4.90;99.90;;;;;;4993288;28;20313;-78
2024/01/12 02:21:38;;;;;;;10.63;1.38;;;4.90;99.90;;;;;;4992259;28;20030;-78
2024/01/12 02:24:03;;;;;;;4.68;1.45;;;4.90;99.90;;;;;;4995840;28;20035;-78
2024/01/12 02:26:29;;;;;;;6.75;1.42;;;4.80;99.90;;;;;;4995886;28;20056;-78
2024/01/12 02:28:56;;;;;;;6.93;1.40;;;4.90;99.90;;;;;;4996763;28;20471;-79
2024/01/12 02:31:22;;;;;;;10.15;1.25;;;4.90;99.90;;;;;;4995616;28;20033;-80
2024/01/12 02:33:51;;;;;;;7.47;1.42;;;5.00;99.90;;;;;;4995864;28;20057;-80
2024/01/12 02:36:17;;;;;;;3.85;1.13;;;4.90;99.90;;;;;;4995848;28;20176;-80
2024/01/12 02:38:48;;;;;;;5.25;1.02;;;4.90;99.90;;;;;;4995817;28;20124;-80
2024/01/12 02:41:14;;;;;;;10.50;1.55;;;4.90;99.90;;;;;;4993169;28;20035;-80
2024/01/12 02:43:39;;;;;;;3.45;1.42;;;4.90;99.90;;;;;;4995492;28;20367;-81
2024/01/12 02:46:05;;;;;;;7.60;0.90;;;4.90;99.90;;;;;;4996999;28;20022;-81
2024/01/12 02:48:31;;;;;;;10.35;1.55;;;4.90;99.90;;;;;;4995102;28;20030;-81
2024/01/12 02:50:57;;;;;;;10.18;1.20;;;4.90;99.90;;;;;;4995283;28;20050;-81
2024/01/12 02:53:22;;;;;;;7.85;1.38;;;4.90;99.90;;;;;;4995201;28;20533;-81
2024/01/12 02:55:48;;;;;;;2.75;0.82;;;4.90;99.90;;;;;;4995259;28;20463;-81
2024/01/12 02:58:13;;;;;;;7.65;1.27;;;5.00;99.90;;;;;;4995254;28;20023;-81
2024/01/12 03:00:39;;;;;;;8.82;1.48;;;5.00;99.90;;;;;;4996654;28;20502;-81
2024/01/12 03:03:05;;;;;;;6.68;1.23;;;5.00;99.90;;;;;;4995396;28;20042;-82
2024/01/12 03:05:31;;;;;;;8.27;2.13;;;4.90;99.90;;;;;;4995251;28;20033;-81
2024/01/12 03:07:57;;;;;;;7.47;1.42;;;5.00;99.90;;;;;;4995037;28;20065;-81
2024/01/12 03:10:22;;;;;;;8.52;1.75;;;5.00;99.90;;;;;;4995324;28;20026;-80
2024/01/12 03:12:48;;;;;;;10.15;2.17;;;5.00;99.90;;;;;;4996093;28;20030;-80
2024/01/12 03:15:14;;;;;;;5.70;1.08;;;4.90;99.90;;;;;;4995106;28;20062;-81
2024/01/12 03:17:40;;;;;;;5.30;1.33;;;4.90;99.90;;;;;;4996272;28;20483;-81
2024/01/12 03:20:07;;;;;;;6.15;1.38;;;4.90;99.90;;;;;;4995117;28;20026;-81
2024/01/12 03:22:32;;;;;;;4.95;1.30;;;4.70;99.90;;;;;;4994774;28;20041;-81
2024/01/12 03:24:59;;;;;;;10.13;1.25;;;4.70;99.90;;;;;;4996265;28;20422;-81
2024/01/12 03:27:24;;;;;;;13.93;1.42;;;4.70;99.90;;;;;;4994984;28;20029;-81
2024/01/12 03:29:50;;;;;;;11.23;1.67;;;4.70;99.90;;;;;;4994575;28;20022;-81
2024/01/12 03:32:16;;;;;;;3.42;0.60;;;4.70;99.90;;;;;;4994759;28;20034;-81
2024/01/12 03:34:41;;;;;;;6.65;1.10;;;4.70;99.90;;;;;;4993499;28;20065;-81
2024/01/12 03:37:07;;;;;;;3.03;1.05;;;4.70;99.90;;;;;;4996038;28;20398;-81
2024/01/12 03:39:32;;;;;;;13.25;1.50;;;4.70;99.90;;;;;;4994874;28;20034;-81
2024/01/12 03:41:58;;;;;;;4.20;1.08;;;4.80;99.90;;;;;;4994983;28;20031;-80
2024/01/12 03:44:24;;;;;;;7.32;1.77;;;4.80;99.90;;;;;;4994595;28;20479;-80
2024/01/12 03:46:49;;;;;;;11.80;1.30;;;4.80;99.90;;;;;;4995841;28;20034;-81
2024/01/12 03:49:15;;;;;;;3.00;1.15;;;4.80;99.90;;;;;;4995654;28;20022;-81
2024/01/12 03:51:44;;;;;;;3.78;1.00;;;4.90;99.90;;;;;;4994189;28;20078;-79
2024/01/12 03:54:10;;;;;;;3.63;1.05;;;4.90;99.90;;;;;;4994897;28;20552;-80
2024/01/12 03:56:35;;;;;;;6.38;1.33;;;4.90;99.90;;;;;;4996391;28;20027;-78
2024/01/12 03:59:01;;;;;;;4.38;1.10;;;4.90;99.90;;;;;;4996136;28;20059;-78
2024/01/12 04:01:27;;;;;;;6.88;0.93;;;4.90;99.90;;;;;;4996144;28;20038;-79
2024/01/12 04:03:52;;;;;;;6.28;1.15;;;4.80;99.90;;;;;;4994581;28;20073;-80
2024/01/12 04:06:19;;;;;;;2.85;0.85;;;4.70;99.90;;;;;;4991473;28;20027;-79
2024/01/12 04:08:44;;;;;;;6.57;1.45;;;4.60;99.90;;;;;;4994142;28;20643;-79
2024/01/12 04:11:22;;;;;;;9.10;1.52;;;4.60;99.90;;;;;;4995340;28;20030;-79
2024/01/12 04:13:48;;;;;;;;;;;4.60;99.90;;;;;;4994207;28;20026;-79
2024/01/12 04:16:14;;;;;;;10.13;1.17;;;4.60;99.90;;;;;;4995288;28;19910;-79
2024/01/12 04:18:39;;;;;;;4.32;0.90;;;4.70;99.90;;;;;;4994941;28;20038;-79
2024/01/12 04:21:05;;;;;;;8.25;1.50;;;4.70;99.90;;;;;;4993961;28;20034;-79
2024/01/12 04:23:31;;;;;;;4.47;1.17;;;4.60;99.90;;;;;;4994451;28;20494;-79
2024/01/12 04:25:57;;;;;;;3.42;1.15;;;4.80;99.90;;;;;;4995613;28;20026;-78
2024/01/12 04:28:24;;;;;;;3.00;0.98;;;5.00;99.90;;;;;;4995432;28;20536;-79
2024/01/12 04:30:49;;;;;;;6.70;1.48;;;5.10;99.90;;;;;;4995516;28;20121;-79
2024/01/12 04:33:16;;;;;;;5.72;0.73;;;5.00;99.90;;;;;;4994210;28;20085;-78
2024/01/12 04:35:41;;;;;;;6.53;1.13;;;4.90;99.90;;;;;;4991141;28;20039;-79
2024/01/12 04:38:09;;;;;;;4.10;1.40;;;4.90;99.90;;;;;;4993974;28;20034;-79
2024/01/12 04:40:35;;;;;;;3.88;1.00;;;4.90;99.90;;;;;;4994051;28;20022;-79
2024/01/12 04:43:01;;;;;;;6.55;1.17;;;4.90;99.90;;;;;;4994778;28;20038;-79
2024/01/12 04:45:27;;;;;;;11.50;2.08;;;4.90;99.90;;;;;;4993537;28;20029;-79
2024/01/12 04:47:52;;;;;;;4.68;1.13;;;4.90;99.90;;;;;;4994964;28;20105;-79
2024/01/12 04:50:18;;;;;;;5.20;1.55;;;4.90;99.90;;;;;;4993509;28;20093;-79
2024/01/12 04:52:43;;;;;;;8.43;1.70;;;5.00;99.90;;;;;;4993220;28;20033;-79
2024/01/12 04:55:09;;;;;;;3.13;0.82;;;5.00;99.90;;;;;;4993158;28;20034;-78
2024/01/12 04:57:35;;;;;;;16.23;1.83;;;4.90;99.90;;;;;;4993210;28;20068;-79
2024/01/12 05:00:01;;;;;;;5.88;1.50;;;4.90;99.90;;;;;;4994694;28;20498;-78
2024/01/12 05:02:26;;;;;;;4.43;0.90;;;5.00;99.90;;;;;;4994459;28;20113;-79
2024/01/12 05:04:52;;;;;;;3.22;1.00;;;4.90;99.90;;;;;;4993516;28;20153;-79
2024/01/12 05:07:18;;;;;;;11.40;1.65;;;4.90;99.90;;;;;;4993499;28;20018;-79
2024/01/12 05:09:43;;;;;;;1.42;0.77;;;4.90;99.90;;;;;;4993442;28;20125;-79
2024/01/12 05:12:09;;;;;;;4.43;1.35;;;4.90;99.90;;;;;;4994575;28;20069;-79
2024/01/12 05:14:35;;;;;;;3.10;1.33;;;4.90;99.90;;;;;;4994300;28;20050;-78
2024/01/12 05:17:01;;;;;;;13.98;1.30;;;4.90;99.90;;;;;;4989980;28;20038;-79
2024/01/12 05:19:26;;;;;;;6.07;1.42;;;4.90;99.90;;;;;;4994479;28;20034;-78
2024/01/12 05:21:52;;;;;;;11.63;2.22;;;4.90;99.90;;;;;;4993199;28;20034;-79
2024/01/12 05:24:18;;;;;;;6.35;1.02;;;4.90;99.90;;;;;;4994455;28;20057;-79
2024/01/12 05:26:44;;;;;;;3.47;0.80;;;4.90;99.90;;;;;;4994122;28;20027;-79
2024/01/12 05:29:12;;;;;;;2.45;1.02;;;4.90;99.90;;;;;;4994424;28;20037;-78
2024/01/12 05:31:38;;;;;;;2.08;1.17;;;4.90;99.90;;;;;;4992932;28;20025;-78
2024/01/12 05:34:03;;;;;;;1.25;0.90;;;4.90;99.90;;;;;;4992846;28;20022;-78
2024/01/12 05:36:29;;;;;;;3.47;1.30;;;4.90;99.90;;;;;;4993726;28;20034;-78
2024/01/12 05:38:54;;;;;;;2.47;0.75;;;5.00;99.90;;;;;;4992267;28;20072;-79
2024/01/12 05:41:20;;;;;;;5.32;1.85;;;5.00;99.90;;;;;;4992170;28;20394;-78
2024/01/12 05:43:46;;;;;;;2.47;1.20;;;5.00;99.90;;;;;;4992012;28;20483;-79
2024/01/12 05:46:11;;;;;;;3.10;1.00;;;5.00;99.90;;;;;;4992511;28;20394;-78
2024/01/12 05:48:37;;;;;;;2.47;1.00;;;5.00;99.90;;;;;;4993408;28;20113;-78
2024/01/12 05:51:03;;;;;;;2.25;0.98;;;5.00;99.90;;;;;;4993496;28;20050;-79
2024/01/12 05:53:28;;;;;;;3.13;1.30;;;5.00;99.90;;;;;;4992319;28;20457;-78
2024/01/12 05:55:54;;;;;;;3.28;1.35;;;5.00;99.90;;;;;;4992186;28;20566;-78
2024/01/12 05:58:20;;;;;;;5.53;1.40;;;5.00;99.90;;;;;;4993890;28;20034;-79
2024/01/12 06:00:47;;;;;;;9.05;1.52;;;5.00;99.90;;;;;;4996596;28;20105;-81
2024/01/12 06:03:13;;;;;;;4.50;1.58;;;4.90;99.90;;;;;;4996282;28;20081;-81
2024/01/12 06:05:40;;;;;;;4.43;1.15;;;4.90;99.90;;;;;;4996573;28;20015;-81
2024/01/12 06:08:06;;;;;;;6.95;1.30;;;4.90;99.90;;;;;;4997508;28;20022;-81
2024/01/12 06:10:31;;;;;;;2.88;1.27;;;4.90;99.90;;;;;;4996440;28;20018;-81
2024/01/12 06:12:57;;;;;;;7.85;1.73;;;5.00;99.90;;;;;;4997519;28;20026;-81
2024/01/12 06:15:23;;;;;;;3.65;1.17;;;4.90;99.90;;;;;;4997583;28;20390;-81
2024/01/12 06:17:48;;;;;;;4.90;1.70;;;4.90;99.90;;;;;;4998156;28;20030;-81
2024/01/12 06:20:17;;;;;;;5.18;1.60;;;4.90;99.90;;;;;;4998373;28;20439;-82
2024/01/12 06:22:43;;;;;;;11.00;1.80;;;4.90;99.90;;;;;;4996621;28;20101;-82
2024/01/12 06:25:08;;;;;;;5.10;1.38;;;4.90;99.90;;;;;;4998008;28;20535;-81
2024/01/12 06:27:34;;;;;;;3.70;1.35;;;4.90;99.90;;;;;;4997044;28;20112;-81
2024/01/12 06:30:00;;;;;;;8.73;1.38;;;4.80;99.90;;;;;;4997905;28;20116;-80
2024/01/12 06:32:25;;;;;;;6.65;1.88;;;4.80;99.90;;;;;;4997877;28;20093;-81
2024/01/12 06:34:51;;;;;;;6.53;1.45;;;4.80;99.90;;;;;;4998629;28;20042;-81
2024/01/12 06:37:16;;;;;;;9.73;1.77;;;4.80;99.90;;;;;;4997668;28;20081;-82
2024/01/12 06:39:42;;;;;;;4.25;1.52;;;4.80;99.90;;;;;;4996366;28;20475;-81
2024/01/12 06:42:08;;;;;;;3.33;1.40;;;4.80;99.90;;;;;;4997755;28;20032;-81
2024/01/12 06:44:40;;;;;;;6.90;1.75;;;4.90;99.90;;;;;;4996361;28;20120;-82
2024/01/12 06:47:07;;;;;;;8.45;2.45;;;4.90;99.90;;;;;;4997692;28;20031;-82
2024/01/12 06:49:33;;;;;;;9.52;2.17;;;5.00;99.90;;;;;;4993921;28;20035;-81
2024/01/12 06:51:59;;;;;;;8.80;1.80;;;5.00;99.90;;;;;;4997544;28;20031;-82
2024/01/12 06:54:25;;;;;;;5.50;2.33;;;4.90;99.90;;;;;;4978480;28;20555;-82
2024/01/12 06:56:52;;;;;;;7.57;2.20;;;4.90;99.90;;;;;;4996259;28;20033;-82
2024/01/12 06:59:18;;;;;;;7.22;1.95;;;4.90;99.90;;;;;;4997803;28;20105;-82
2024/01/12 07:01:44;;;;;;;5.93;1.30;;;5.00;99.90;;;;;;4997196;28;20046;-82
2024/01/12 07:04:11;;;;;;;7.32;1.88;;;5.00;99.90;;;;;;4995959;28;20410;-82
2024/01/12 07:06:36;;;;;;;5.22;2.63;;;5.00;99.90;;;;;;4996894;28;20037;-82
2024/01/12 07:09:02;;;;;;;2.55;1.42;;;5.00;99.90;;;;;;4996237;28;20019;-81
2024/01/12 07:11:28;;;;;;;8.15;1.90;;;5.00;99.90;;;;;;4996172;28;20022;-81
2024/01/12 07:13:54;;;;;;;3.97;1.52;;;5.00;99.90;;;;;;4996563;28;20026;-81
2024/01/12 07:16:20;;;;;;;6.30;2.10;;;5.00;99.90;;;;;;4995589;28;20026;-81
2024/01/12 07:18:48;;;;;;;10.93;1.92;;;5.00;99.90;;;;;;4997769;28;20113;-82
2024/01/12 07:21:15;;;;;;;9.70;1.52;;;5.00;99.90;;;;;;4995114;28;20113;-81
2024/01/12 07:23:41;;;;;;;6.63;1.50;;;5.00;99.90;;;;;;4995873;28;20105;-79
2024/01/12 07:26:06;;;;;;;23.30;1.80;;;5.00;99.90;;;;;;4994594;28;20118;-79
2024/01/12 07:28:32;;;;;;;4.38;1.45;;;5.00;99.90;;;;;;4994730;28;20482;-79
2024/01/12 07:30:58;;;;;;;5.15;1.77;;;4.90;99.90;;;;;;4994643;28;20038;-79
2024/01/12 07:33:23;;;;;;;2.53;1.60;;;5.00;99.90;;;;;;4995488;28;20109;-77
2024/01/12 07:35:49;;;;;;;16.95;2.90;;;4.90;99.90;;;;;;4994333;28;20072;-80
2024/01/12 07:38:14;;;;;;;6.00;2.40;;;4.80;99.90;;;;;;4994620;28;20036;-80
2024/01/12 07:40:40;;;;;;;12.93;2.58;;;4.80;99.90;;;;;;4995573;28;20088;-78
2024/01/12 07:43:06;;;;;;;13.68;2.35;;;4.80;99.90;;;;;;4994223;28;20023;-79
2024/01/12 07:45:32;;;;;;;9.48;1.85;;;4.80;99.90;;;;;;4995304;28;20034;-78
2024/01/12 07:47:57;;;;;;;7.25;2.45;;;4.80;99.90;;;;;;4994321;28;20042;-78
2024/01/12 07:50:23;;;;;;;7.40;2.35;;;4.80;99.90;;;;;;4993951;28;20057;-79
2024/01/12 07:52:48;;;;;;;5.63;2.33;;;4.80;99.90;;;;;;4995488;28;20039;-79
2024/01/12 07:55:14;;;;;;;3.88;1.90;;;4.80;99.90;;;;;;4995408;28;20084;-79
2024/01/12 07:57:40;;;;;;;5.70;1.88;;;4.80;99.90;;;;;;4993699;28;20050;-79
2024/01/12 08:00:06;;;;;;;8.95;2.60;;;4.80;99.90;;;;;;4995411;28;20557;-79
2024/01/12 08:02:32;;;;;;;8.82;2.28;;;4.80;99.90;;;;;;4993993;28;20506;-79
2024/01/12 08:04:58;;;;;;;11.30;2.40;;;4.80;99.90;;;;;;4994716;28;20137;-79
2024/01/12 08:07:23;;;;;;;8.52;1.92;;;4.80;99.90;;;;;;4995170;28;20027;-79
2024/01/12 08:09:49;;;;;;;10.15;2.05;;;4.80;99.90;;;;;;4993547;28;20049;-79
2024/01/12 08:12:14;;;;;;;6.05;2.42;;;4.80;99.90;;;;;;4993942;28;20085;-79
2024/01/12 08:14:40;;;;;;;5.05;2.17;;;4.80;99.90;;;;;;4995303;28;20057;-80
2024/01/12 08:17:05;;;;;;;3.20;2.03;;;4.90;99.90;;;;;;4993973;28;20066;-80
2024/01/12 08:19:31;;;;;;;8.40;2.80;;;5.00;99.90;;;;;;4995150;28;20030;-80
2024/01/12 08:21:57;;;;;;;15.05;2.60;;;5.00;99.90;;;;;;4994509;28;20065;-81
2024/01/12 08:24:22;;;;;;;3.95;1.90;;;5.00;99.90;;;;;;4994279;28;20053;-82
2024/01/12 08:26:48;;;;;;;6.10;2.15;;;5.00;99.90;;;;;;4993662;28;20292;-82
2024/01/12 08:29:14;;;;;;;9.68;2.55;;;5.00;99.90;;;;;;4993482;28;20022;-82
2024/01/12 08:31:40;;;;;;;8.85;2.10;;;5.00;99.90;;;;;;4993877;28;20030;-82
2024/01/12 08:34:06;;;;;;;3.83;1.70;;;5.10;99.90;;;;;;4994884;28;20101;-81
2024/01/12 08:36:31;;;;;;;6.97;2.22;;;5.10;99.90;;;;;;4995048;28;20081;-81
2024/01/12 08:38:57;;;;;;;5.40;2.47;;;5.20;99.90;;;;;;4994692;28;20072;-81
2024/01/12 08:41:23;;;;;;;6.72;2.35;;;5.20;99.90;;;;;;4994362;28;20027;-81
2024/01/12 08:43:52;;;;;;;10.13;3.13;;;5.20;99.90;;;;;;4994577;28;20037;-81
2024/01/12 08:46:18;;;;;;;10.65;3.33;;;5.10;99.90;;;;;;4994857;28;20045;-79
2024/01/12 08:48:44;;;;;;;3.65;2.10;;;5.10;99.90;;;;;;4993873;28;20403;-80
2024/01/12 08:51:10;;;;;;;9.23;3.15;;;5.10;99.90;;;;;;4993122;28;20047;-80
2024/01/12 08:53:35;;;;;;;12.68;3.60;;;5.10;99.90;;;;;;4994749;28;20030;-79
2024/01/12 08:56:01;;;;;;;6.13;2.65;;;5.10;99.90;;;;;;4993201;28;20026;-79
2024/01/12 08:58:27;;;;;;;7.35;2.65;;;5.20;99.90;;;;;;4994632;28;20030;-79
2024/01/12 09:00:52;;;;;;;7.45;2.72;;;5.20;99.90;;;;;;4994601;28;20067;-79
2024/01/12 09:03:18;;;;;;;7.70;2.75;;;5.20;99.90;;;;;;4993063;28;20507;-78
2024/01/12 09:05:44;;;;;;;9.27;2.88;;;5.30;99.90;;;;;;4992805;28;20031;-78
2024/01/12 09:08:09;;;;;;;7.35;2.70;;;5.30;99.90;;;;;;4993184;28;20025;-79
2024/01/12 09:10:35;;;;;;;14.90;3.08;;;5.20;99.90;;;;;;4994308;28;20030;-80
2024/01/12 09:13:02;;;;;;;22.85;3.45;;;5.20;99.90;;;;;;4994007;28;20033;-79
2024/01/12 09:15:28;;;;;;;4.97;2.30;;;5.20;99.90;;;;;;4994482;28;20467;-79
2024/01/12 09:17:53;;;;;;;13.98;3.75;;;5.20;99.90;;;;;;4994426;28;20034;-79
2024/01/12 09:20:19;;;;;;;14.55;2.92;;;5.10;99.90;;;;;;4994172;28;20026;-79
2024/01/12 09:22:46;;;;;;;7.43;3.00;;;5.10;99.90;;;;;;4994371;28;20414;-80
2024/01/12 09:25:12;;;;;;;10.63;2.95;;;5.20;99.90;;;;;;4992102;28;20037;-79
2024/01/12 09:27:37;;;;;;;6.35;2.45;;;5.20;99.90;;;;;;4992932;28;20410;-79
2024/01/12 09:30:03;;;;;;;8.60;2.95;;;5.40;99.90;;;;;;4992486;28;20048;-79
2024/01/12 09:32:29;;;;;;;7.00;2.33;;;5.40;99.90;;;;;;4991770;28;20565;-82
2024/01/12 09:34:55;;;;;;;10.35;3.13;;;5.50;99.90;;;;;;4993861;28;20050;-81
2024/01/12 09:37:20;;;;;;;12.70;2.63;;;5.60;99.90;;;;;;4990089;28;20065;-81
2024/01/12 09:39:46;;;;;;;15.27;2.85;;;5.60;99.90;;;;;;4989591;28;20030;-80
2024/01/12 09:42:15;;;;;;;11.32;2.65;;;5.70;99.90;;;;;;4996632;28;20372;-78
2024/01/12 09:44:45;;;;;;;11.27;2.78;;;5.60;99.90;;;;;;4994640;28;20101;-78
2024/01/12 09:47:12;;;;;;;7.95;3.10;;;5.70;99.90;;;;;;4994815;28;20053;-78
2024/01/12 09:49:38;;;;;;;20.23;2.60;;;5.70;99.90;;;;;;4994069;28;20452;-78
2024/01/12 09:52:07;;;;;;;11.18;2.42;;;5.70;99.90;;;;;;4994189;28;20459;-76
2024/01/12 09:54:34;;;;;;;11.48;2.50;;;5.60;99.90;;;;;;4992976;28;20023;-78
2024/01/12 09:57:02;;;;;;;16.13;4.50;;;5.70;99.90;;;;;;4992868;28;20014;-78
2024/01/12 09:59:28;;;;;;;6.65;2.15;;;5.80;99.90;;;;;;4992894;28;20127;-79
2024/01/12 10:01:56;;;;;;;13.75;2.45;;;5.90;99.90;;;;;;4992743;28;20122;-78
2024/01/12 10:04:22;;;;;;;3.78;2.00;;;5.90;99.90;;;;;;4992579;28;20045;-78
2024/01/12 10:06:48;;;;;;;18.67;2.63;;;5.80;99.90;;;;;;4993724;28;20030;-76
2024/01/12 10:09:14;;;;;;;16.52;3.50;;;5.90;99.90;;;;;;4992723;28;20080;-79
2024/01/12 10:11:42;;;;;;;17.33;3.05;;;5.90;99.90;;;;;;4994062;28;20034;-75
2024/01/12 10:14:08;;;;;;;10.15;2.00;;;5.90;99.90;;;;;;4993077;28;20030;-79
2024/01/12 10:16:33;;;;;;;8.65;2.00;;;5.90;99.90;;;;;;4992720;28;20038;-78
2024/01/12 10:19:00;;;;;;;8.23;1.70;;;6.00;99.90;;;;;;4991819;28;20030;-77
2024/01/12 10:21:26;;;;;;;16.10;3.53;;;6.00;99.90;;;;;;4991877;28;20390;-77
2024/01/12 10:24:05;;;;;;;10.40;2.30;;;6.10;99.90;;;;;;4992726;28;20034;-78
2024/01/12 10:26:31;;;;;;;7.60;1.45;;;6.20;99.90;;;;;;4991195;28;20018;-78
2024/01/12 10:29:04;;;;;;;17.27;1.45;;;6.10;99.90;;;;;;4991890;28;20037;-79
2024/01/12 10:31:30;;;;;;;13.55;1.83;;;6.20;99.90;;;;;;4992132;28;20019;-81
2024/01/12 10:34:00;;;;;;;8.27;1.58;;;6.20;99.90;;;;;;4993224;28;20037;-78
2024/01/12 10:36:28;;;;;;;10.50;1.50;;;6.10;99.90;;;;;;4992752;28;20049;-79
2024/01/12 10:38:55;;;;;;;;;;;6.10;99.90;;;;;;4993608;28;20030;-78
2024/01/12 10:41:24;;;;;;;7.63;1.13;;;6.20;99.90;;;;;;4991647;28;19906;-78
2024/01/12 10:43:54;;;;;;;3.58;0.70;;;6.20;99.90;;;;;;4993772;28;20054;-81
2024/01/12 10:46:37;;;;;;;20.35;1.23;;;6.20;99.90;;;;;;4995234;28;20019;-79
2024/01/12 10:49:15;;;;;;;7.47;1.45;;;6.20;99.90;;;;;;4996589;28;20042;-79
2024/01/12 10:52:15;;;;;;;13.13;1.75;;;6.30;99.90;;;;;;4995464;28;20121;-78
2024/01/12 10:54:56;;;;;;;11.80;1.77;;;6.30;99.90;;;;;;4995641;28;20479;-78
2024/01/12 10:57:22;;;;;;;12.80;2.88;;;6.30;99.90;;;;;;4996978;28;20033;-77
2024/01/12 10:59:49;;;;;;;11.27;1.65;;;6.20;99.90;;;;;;4996573;28;20019;-77
2024/01/12 11:02:16;;;;;;;7.53;1.25;;;6.30;99.90;;;;;;4995372;28;20390;-77
2024/01/12 11:04:42;;;;;;;12.00;1.80;;;6.30;99.90;;;;;;4995792;28;20025;-79
2024/01/12 11:07:09;;;;;;;10.20;1.77;;;6.40;99.90;;;;;;4973533;28;20117;-79
2024/01/12 11:09:35;;;;;;;4.20;1.75;;;6.40;99.90;;;;;;4992171;28;20094;-78
2024/01/12 11:12:09;;;;;;;5.28;1.13;;;6.40;99.90;;;;;;4977370;28;20027;-78
2024/01/12 11:14:40;;;;;;;7.18;1.00;;;6.50;99.90;;;;;;4976471;28;20026;-78
2024/01/12 11:17:06;;;;;;;5.78;1.23;;;6.60;99.90;;;;;;4995583;28;20387;-79
2024/01/12 11:19:33;;;;;;;7.85;1.27;;;6.60;99.90;;;;;;4996424;28;20487;-78
2024/01/12 11:22:09;;;;;;;4.47;0.80;;;6.60;99.90;;;;;;4996516;28;20102;-78
2024/01/12 11:24:36;;;;;;;23.25;1.23;;;6.50;99.90;;;;;;4995832;28;20542;-78
2024/01/12 11:27:04;;;;;;;8.45;1.42;;;6.60;99.90;;;;;;4996319;28;20390;-78
2024/01/12 11:29:31;;;;;;;8.88;0.82;;;6.60;99.90;;;;;;4994938;28;20026;-78
2024/01/12 11:32:01;;;;;;;1.80;0.70;;;6.50;99.90;;;;;;4996671;28;20068;-78
2024/01/12 11:34:33;;;;;;;4.72;0.60;;;6.50;99.90;;;;;;4995362;28;20035;-78
2024/01/12 11:37:00;;;;;;;5.93;0.68;;;6.50;99.90;;;;;;4996104;28;20040;-78
2024/01/12 11:39:33;;;;;;;9.88;1.15;;;6.60;99.90;;;;;;4981875;28;20030;-78
2024/01/12 11:42:01;;;;;;;6.97;1.35;;;6.50;99.90;;;;;;4992116;28;20049;-78
2024/01/12 11:44:26;;;;;;;11.55;1.45;;;6.50;99.90;;;;;;4996304;28;20033;-78
2024/01/12 11:46:52;;;;;;;14.73;1.80;;;6.50;99.90;;;;;;4994608;28;20026;-77
2024/01/12 11:49:19;;;;;;;10.13;1.30;;;6.50;99.90;;;;;;4996157;28;20470;-78
2024/01/12 11:51:45;;;;;;;9.95;1.50;;;6.60;99.90;;;;;;4992029;28;20055;-78
2024/01/12 11:54:11;;;;;;;7.13;1.30;;;6.70;99.90;;;;;;4996230;28;20030;-79
2024/01/12 11:56:39;;;;;;;8.20;0.77;;;6.60;99.90;;;;;;4993719;28;20475;-80
2024/01/12 11:59:05;;;;;;;;;;;6.50;99.90;;;;;;4996246;28;20077;-79
2024/01/12 12:01:31;;;;;;;5.60;1.15;;;6.50;99.90;;;;;;4994966;28;19913;-80
2024/01/12 12:03:57;;;;;;;4.20;0.98;;;6.60;99.90;;;;;;4994774;28;20109;-79
2024/01/12 12:06:23;;;;;;;6.07;0.73;;;6.60;99.90;;;;;;4994598;28;20454;-79
2024/01/12 12:08:52;;;;;;;3.67;0.88;;;6.50;99.90;;;;;;4995198;28;20086;-79
2024/01/12 12:11:18;;;;;;;8.05;0.73;;;6.60;99.90;;;;;;4994397;28;20060;-80
2024/01/12 12:13:44;;;;;;;5.40;0.60;;;6.60;99.90;;;;;;4994919;28;20537;-79
2024/01/12 12:16:10;;;;;;;6.47;0.90;;;6.70;99.90;;;;;;4994420;28;20026;-79
2024/01/12 12:18:36;;;;;;;1.58;0.68;;;6.80;99.90;;;;;;4994733;28;20076;-79
2024/01/12 12:21:01;;;;;;;12.00;0.90;;;6.80;99.90;;;;;;4994345;28;20500;-79
2024/01/12 12:23:28;;;;;;;9.18;0.77;;;6.80;99.90;;;;;;4994563;28;20033;-80
2024/01/12 12:25:54;;;;;;;2.63;0.30;;;6.80;99.90;;;;;;4995566;28;20029;-79
2024/01/12 12:28:22;;;;;;;5.53;0.45;;;6.90;99.90;;;;;;4995131;28;20439;-79
2024/01/12 12:30:47;;;;;;;8.02;0.70;;;6.80;99.90;;;;;;4994361;28;20475;-79
2024/01/12 12:33:13;;;;;;;3.90;0.75;;;6.70;99.90;;;;;;4994016;28;20101;-79
2024/01/12 12:35:39;;;;;;;3.50;0.50;;;6.80;99.90;;;;;;4993736;28;20080;-80
2024/01/12 12:38:04;;;;;;;6.70;1.60;;;6.70;99.90;;;;;;4993385;28;20487;-79
2024/01/12 12:40:33;;;;;;;8.77;1.88;;;6.70;99.90;;;;;;4994748;28;20038;-79
2024/01/12 12:42:59;;;;;;;1.85;0.40;;;6.60;99.90;;;;;;4994607;28;20038;-79
2024/01/12 12:45:26;;;;;;;2.85;0.60;;;6.70;99.90;;;;;;4995122;28;20026;-80
2024/01/12 12:47:52;;;;;;;9.23;0.85;;;6.80;99.90;;;;;;4995774;28;20049;-80
2024/01/12 12:50:18;;;;;;;3.92;0.57;;;6.90;99.90;;;;;;4993598;28;20054;-80